British Tenacity — MDTE9 — position and weather

sailwx.info

Track history (hours):
 
Tides and Currents Weather Stations Pressure Air Temp Water Temp Dewpoint Dewpoint Depression Visibility Wind Speed Wind Dir Waves Ship Positions

British Tenacity

Last reported at 2017-Feb-19 22:28 UTC. Time now 2017-Feb-25 07:29 UTC.
Position N 28°27' W 093°05'.

Type: Ship (hazmat cat C). MMSI: 235825000.

Date/timePositionNaut miles runAvg speedWind from/ knotsBaromVisibWave heightAir tempDewpointWater temp
2017-Feb-19 22:28N 28°27' W 093°05'1212.7
2017-Feb-19 21:34N 28°37' W 093°13'1313.0
2017-Feb-19 20:33N 28°50' W 093°13'1313.2
2017-Feb-19 19:33N 29°03' W 093°13'1613.0
2017-Feb-19 18:18N 29°19' W 093°13'1411.2
2017-Feb-19 17:03N 29°33' W 093°15'9 9.2
2017-Feb-19 16:06N 29°41' W 093°20'5 9.8
2017-Feb-19 15:33N 29°46' W 093°21'8 8.2
2017-Feb-19 14:33N 29°54' W 093°21'7 7.5
2017-Feb-19 13:33N 30°02' W 093°20'7 7.4
2017-Feb-19 12:33N 30°09' W 093°20'1 1.3
2017-Feb-19 11:30N 30°11' W 093°19'0 0.0
2017-Feb-19 10:33N 30°11' W 093°19'0 0.0
2017-Feb-19 09:32N 30°11' W 093°19'0 0.0
2017-Feb-19 08:32N 30°11' W 093°19'0 0.0
2017-Feb-19 07:32N 30°11' W 093°19'0 0.0
2017-Feb-19 06:32N 30°11' W 093°19'0 0.0
2017-Feb-19 05:29N 30°11' W 093°19'0 0.0
2017-Feb-19 04:32N 30°11' W 093°19'0 0.0
2017-Feb-19 03:32N 30°11' W 093°19'0 0.0
2017-Feb-19 02:32N 30°11' W 093°19'0 0.0
2017-Feb-19 01:32N 30°11' W 093°19'0 0.0
2017-Feb-19 00:32N 30°11' W 093°19'0 0.0
2017-Feb-18 23:32N 30°11' W 093°19'0 0.0
2017-Feb-18 22:32N 30°11' W 093°19'0 0.0
2017-Feb-18 21:32N 30°11' W 093°19'0 0.0
2017-Feb-18 20:32N 30°11' W 093°19'0 0.0
2017-Feb-18 19:32N 30°11' W 093°19'0 0.0
2017-Feb-18 18:32N 30°11' W 093°19'0 0.0
2017-Feb-18 17:32N 30°11' W 093°19'0 0.0
2017-Feb-18 16:32N 30°11' W 093°19'0 0.0
2017-Feb-18 15:32N 30°11' W 093°19'0 0.0
2017-Feb-18 14:32N 30°11' W 093°19'0 0.0
2017-Feb-18 13:32N 30°11' W 093°19'0 0.0
2017-Feb-18 12:32N 30°11' W 093°19'0 0.0
2017-Feb-18 11:32N 30°11' W 093°19'0 0.0
2017-Feb-18 10:32N 30°11' W 093°19'0 0.0
2017-Feb-18 09:29N 30°11' W 093°19'0 0.0
2017-Feb-18 08:32N 30°11' W 093°19'0 0.0
2017-Feb-18 07:32N 30°11' W 093°19'0 0.0
2017-Feb-18 06:29N 30°11' W 093°19'0 0.0
2017-Feb-18 05:32N 30°11' W 093°19'0 0.0
2017-Feb-18 04:32N 30°11' W 093°19'0 0.0
2017-Feb-18 03:31N 30°11' W 093°19'0 0.0
2017-Feb-18 02:31N 30°11' W 093°19'0 0.0
2017-Feb-18 01:31N 30°11' W 093°19'0 0.0
2017-Feb-18 00:31N 30°11' W 093°19'0 0.0
2017-Feb-17 23:31N 30°11' W 093°19'0 0.0
2017-Feb-17 22:31N 30°11' W 093°19'0 0.0
2017-Feb-17 21:33N 30°11' W 093°19'1 1.4
2017-Feb-17 20:34N 30°11' W 093°18'2 2.3
2017-Feb-17 19:31N 30°13' W 093°16'0 0.0
2017-Feb-17 18:31N 30°13' W 093°16'0 0.0
2017-Feb-17 17:31N 30°13' W 093°16'0 0.0
2017-Feb-17 16:31N 30°13' W 093°16'0 0.0
2017-Feb-17 15:31N 30°13' W 093°16'0 0.0
2017-Feb-17 14:31N 30°13' W 093°16'0 0.0
2017-Feb-17 13:31N 30°13' W 093°16'0 0.0
2017-Feb-17 12:31N 30°13' W 093°16'0 0.0
2017-Feb-17 11:31N 30°13' W 093°16'0 0.0
2017-Feb-17 10:28N 30°13' W 093°16'0 0.0
2017-Feb-17 09:31N 30°13' W 093°16'0 0.0
2017-Feb-17 08:31N 30°13' W 093°16'0 0.0
2017-Feb-17 07:31N 30°13' W 093°16'0 0.0
2017-Feb-17 06:33N 30°13' W 093°16'0 0.0
2017-Feb-17 05:33N 30°13' W 093°16'0 0.0
2017-Feb-17 04:33N 30°13' W 093°16'0 0.0
2017-Feb-17 03:33N 30°13' W 093°16'0 0.0
2017-Feb-17 02:33N 30°13' W 093°16'0 0.0
2017-Feb-17 01:33N 30°13' W 093°16'0 0.0
2017-Feb-17 00:33N 30°13' W 093°16'0 0.1
2017-Feb-16 23:33N 30°13' W 093°16'4 3.9
2017-Feb-16 22:33N 30°10' W 093°19'6 5.7
2017-Feb-16 21:33N 30°05' W 093°20'9 8.6
2017-Feb-16 20:33N 29°56' W 093°20'10 9.7
2017-Feb-16 19:31N 29°46' W 093°21'11 4.7
2017-Feb-16 17:10N 29°36' W 093°15'0 0.1
2017-Feb-16 15:31N 29°36' W 093°15'0 0.0
2017-Feb-16 11:22N 29°36' W 093°15'0 0.0
2017-Feb-16 10:22N 29°36' W 093°15'0 0.0
2017-Feb-16 09:31N 29°36' W 093°15'0 0.0
2017-Feb-16 07:33N 29°36' W 093°15'0 0.0
2017-Feb-16 06:33N 29°36' W 093°15'0 0.0
2017-Feb-16 05:33N 29°36' W 093°15'0 0.0
2017-Feb-16 04:33N 29°36' W 093°15'0 0.0
2017-Feb-16 03:33N 29°36' W 093°15'0 0.0
2017-Feb-16 02:21N 29°36' W 093°15'0 0.0
2017-Feb-16 01:33N 29°36' W 093°15'  
2017-Feb-13 04:33N 19°38' W 094°26'1313.4
2017-Feb-13 03:33N 19°24' W 094°26'2813.6
2017-Feb-13 01:31N 18°57' W 094°26'1313.7
2017-Feb-13 00:32N 18°43' W 094°27'  
Track history (hours):
 
Tides and Currents Weather Stations Pressure Air Temp Water Temp Dewpoint Dewpoint Depression Visibility Wind Speed Wind Dir Waves Ship Positions

British Tenacity

Last reported at 2017-Feb-19 22:28 UTC. Time now 2017-Feb-25 07:29 UTC.
Position N 28°27' W 093°05'.

Type: Ship (hazmat cat C). MMSI: 235825000.

Date/timePositionNaut miles runAvg speedWind from/ knotsBaromVisibWave heightAir tempDewpointWater temp
2017-Feb-19 22:28N 28°27' W 093°05'1212.7
2017-Feb-19 21:34N 28°37' W 093°13'1313.0
2017-Feb-19 20:33N 28°50' W 093°13'1313.2
2017-Feb-19 19:33N 29°03' W 093°13'1613.0
2017-Feb-19 18:18N 29°19' W 093°13'1411.2
2017-Feb-19 17:03N 29°33' W 093°15'9 9.2
2017-Feb-19 16:06N 29°41' W 093°20'5 9.8
2017-Feb-19 15:33N 29°46' W 093°21'8 8.2
2017-Feb-19 14:33N 29°54' W 093°21'7 7.5
2017-Feb-19 13:33N 30°02' W 093°20'7 7.4
2017-Feb-19 12:33N 30°09' W 093°20'1 1.3
2017-Feb-19 11:30N 30°11' W 093°19'0 0.0
2017-Feb-19 10:33N 30°11' W 093°19'0 0.0
2017-Feb-19 09:32N 30°11' W 093°19'0 0.0
2017-Feb-19 08:32N 30°11' W 093°19'0 0.0
2017-Feb-19 07:32N 30°11' W 093°19'0 0.0
2017-Feb-19 06:32N 30°11' W 093°19'0 0.0
2017-Feb-19 05:29N 30°11' W 093°19'0 0.0
2017-Feb-19 04:32N 30°11' W 093°19'0 0.0
2017-Feb-19 03:32N 30°11' W 093°19'0 0.0
2017-Feb-19 02:32N 30°11' W 093°19'0 0.0
2017-Feb-19 01:32N 30°11' W 093°19'0 0.0
2017-Feb-19 00:32N 30°11' W 093°19'0 0.0
2017-Feb-18 23:32N 30°11' W 093°19'0 0.0
2017-Feb-18 22:32N 30°11' W 093°19'0 0.0
2017-Feb-18 21:32N 30°11' W 093°19'0 0.0
2017-Feb-18 20:32N 30°11' W 093°19'0 0.0
2017-Feb-18 19:32N 30°11' W 093°19'0 0.0
2017-Feb-18 18:32N 30°11' W 093°19'0 0.0
2017-Feb-18 17:32N 30°11' W 093°19'0 0.0
2017-Feb-18 16:32N 30°11' W 093°19'0 0.0
2017-Feb-18 15:32N 30°11' W 093°19'0 0.0
2017-Feb-18 14:32N 30°11' W 093°19'0 0.0
2017-Feb-18 13:32N 30°11' W 093°19'0 0.0
2017-Feb-18 12:32N 30°11' W 093°19'0 0.0
2017-Feb-18 11:32N 30°11' W 093°19'0 0.0
2017-Feb-18 10:32N 30°11' W 093°19'0 0.0
2017-Feb-18 09:29N 30°11' W 093°19'0 0.0
2017-Feb-18 08:32N 30°11' W 093°19'0 0.0
2017-Feb-18 07:32N 30°11' W 093°19'0 0.0
2017-Feb-18 06:29N 30°11' W 093°19'0 0.0
2017-Feb-18 05:32N 30°11' W 093°19'0 0.0
2017-Feb-18 04:32N 30°11' W 093°19'0 0.0
2017-Feb-18 03:31N 30°11' W 093°19'0 0.0
2017-Feb-18 02:31N 30°11' W 093°19'0 0.0
2017-Feb-18 01:31N 30°11' W 093°19'0 0.0
2017-Feb-18 00:31N 30°11' W 093°19'0 0.0
2017-Feb-17 23:31N 30°11' W 093°19'0 0.0
2017-Feb-17 22:31N 30°11' W 093°19'0 0.0
2017-Feb-17 21:33N 30°11' W 093°19'1 1.4
2017-Feb-17 20:34N 30°11' W 093°18'2 2.3
2017-Feb-17 19:31N 30°13' W 093°16'0 0.0
2017-Feb-17 18:31N 30°13' W 093°16'0 0.0
2017-Feb-17 17:31N 30°13' W 093°16'0 0.0
2017-Feb-17 16:31N 30°13' W 093°16'0 0.0
2017-Feb-17 15:31N 30°13' W 093°16'0 0.0
2017-Feb-17 14:31N 30°13' W 093°16'0 0.0
2017-Feb-17 13:31N 30°13' W 093°16'0 0.0
2017-Feb-17 12:31N 30°13' W 093°16'0 0.0
2017-Feb-17 11:31N 30°13' W 093°16'0 0.0
2017-Feb-17 10:28N 30°13' W 093°16'0 0.0
2017-Feb-17 09:31N 30°13' W 093°16'0 0.0
2017-Feb-17 08:31N 30°13' W 093°16'0 0.0
2017-Feb-17 07:31N 30°13' W 093°16'0 0.0
2017-Feb-17 06:33N 30°13' W 093°16'0 0.0
2017-Feb-17 05:33N 30°13' W 093°16'0 0.0
2017-Feb-17 04:33N 30°13' W 093°16'0 0.0
2017-Feb-17 03:33N 30°13' W 093°16'0 0.0
2017-Feb-17 02:33N 30°13' W 093°16'0 0.0
2017-Feb-17 01:33N 30°13' W 093°16'0 0.0
2017-Feb-17 00:33N 30°13' W 093°16'0 0.1
2017-Feb-16 23:33N 30°13' W 093°16'4 3.9
2017-Feb-16 22:33N 30°10' W 093°19'6 5.7
2017-Feb-16 21:33N 30°05' W 093°20'9 8.6
2017-Feb-16 20:33N 29°56' W 093°20'10 9.7
2017-Feb-16 19:31N 29°46' W 093°21'11 4.7
2017-Feb-16 17:10N 29°36' W 093°15'0 0.1
2017-Feb-16 15:31N 29°36' W 093°15'0 0.0
2017-Feb-16 11:22N 29°36' W 093°15'0 0.0
2017-Feb-16 10:22N 29°36' W 093°15'0 0.0
2017-Feb-16 09:31N 29°36' W 093°15'0 0.0
2017-Feb-16 07:33N 29°36' W 093°15'0 0.0
2017-Feb-16 06:33N 29°36' W 093°15'0 0.0
2017-Feb-16 05:33N 29°36' W 093°15'0 0.0
2017-Feb-16 04:33N 29°36' W 093°15'0 0.0
2017-Feb-16 03:33N 29°36' W 093°15'0 0.0
2017-Feb-16 02:21N 29°36' W 093°15'0 0.0
2017-Feb-16 01:33N 29°36' W 093°15'  
2017-Feb-13 04:33N 19°38' W 094°26'1313.4
2017-Feb-13 03:33N 19°24' W 094°26'2813.6
2017-Feb-13 01:31N 18°57' W 094°26'1313.7
2017-Feb-13 00:32N 18°43' W 094°27'  

Dump ship's entire track history